Map

Track Data

SID SEASON NUMBER BASIN SUBBASIN NAME ISO_TIME NATURE LAT LON WMO_WIND WMO_PRES WMO_AGENCY TRACK_TYPE DIST2LAND LANDFALL IFLAG USA_AGENCY USA_ATCF_ID USA_LAT USA_LON USA_RECORD USA_STATUS USA_WIND USA_PRES USA_SSHS USA_R34_NE USA_R34_SE USA_R34_SW USA_R34_NW USA_R50_NE USA_R50_SE USA_R50_SW USA_R50_NW USA_R64_NE USA_R64_SE USA_R64_SW USA_R64_NW USA_POCI USA_ROCI USA_RMW USA_EYE TOKYO_LAT TOKYO_LON TOKYO_GRADE TOKYO_WIND TOKYO_PRES TOKYO_R50_DIR TOKYO_R50_LONG TOKYO_R50_SHORT TOKYO_R30_DIR TOKYO_R30_LONG TOKYO_R30_SHORT TOKYO_LAND CMA_LAT CMA_LON CMA_CAT CMA_WIND CMA_PRES HKO_LAT HKO_LON HKO_CAT HKO_WIND HKO_PRES NEWDELHI_LAT NEWDELHI_LON NEWDELHI_GRADE NEWDELHI_WIND NEWDELHI_PRES NEWDELHI_CI NEWDELHI_DP NEWDELHI_POCI REUNION_LAT REUNION_LON REUNION_TYPE REUNION_WIND REUNION_PRES REUNION_TNUM REUNION_CI REUNION_RMW REUNION_R34_NE REUNION_R34_SE REUNION_R34_SW REUNION_R34_NW REUNION_R50_NE REUNION_R50_SE REUNION_R50_SW REUNION_R50_NW REUNION_R64_NE REUNION_R64_SE REUNION_R64_SW REUNION_R64_NW BOM_LAT BOM_LON BOM_TYPE BOM_WIND BOM_PRES BOM_TNUM BOM_CI BOM_RMW BOM_R34_NE BOM_R34_SE BOM_R34_SW BOM_R34_NW BOM_R50_NE BOM_R50_SE BOM_R50_SW BOM_R50_NW BOM_R64_NE BOM_R64_SE BOM_R64_SW BOM_R64_NW BOM_ROCI BOM_POCI BOM_EYE BOM_POS_METHOD BOM_PRES_METHOD NADI_LAT NADI_LON NADI_CAT NADI_WIND NADI_PRES WELLINGTON_LAT WELLINGTON_LON WELLINGTON_WIND WELLINGTON_PRES DS824_LAT DS824_LON DS824_STAGE DS824_WIND DS824_PRES TD9636_LAT TD9636_LON TD9636_STAGE TD9636_WIND TD9636_PRES TD9635_LAT TD9635_LON TD9635_WIND TD9635_PRES TD9635_ROCI NEUMANN_LAT NEUMANN_LON NEUMANN_CLASS NEUMANN_WIND NEUMANN_PRES MLC_LAT MLC_LON MLC_CLASS MLC_WIND MLC_PRES USA_GUST BOM_GUST BOM_GUST_PER REUNION_GUST REUNION_GUST_PER USA_SEAHGT USA_SEARAD_NE USA_SEARAD_SE USA_SEARAD_SW USA_SEARAD_NW STORM_SPEED STORM_DIR
1933062S13062 1933 4 SI MM NOT_NAMED 1933-03-03 06:00:00 NR -12.7000 61.7000 reunion main 931 931 _____O________ -1 -12.7000 61.7000 99 9.90000 2 70
1933062S13062 1933 4 SI MM NOT_NAMED 1933-03-03 09:00:00 NR -12.6666 61.7925 main 936 936 _____P________ -1 -12.6666 61.7925 99 2 69
1933062S13062 1933 4 SI MM NOT_NAMED 1933-03-03 12:00:00 NR -12.6388 61.8690 main 951 951 _____P________ -1 -12.6388 61.8690 99 1 69
1933062S13062 1933 4 SI MM NOT_NAMED 1933-03-03 15:00:00 NR -12.6221 61.9136 main 951 951 _____P________ -1 -12.6221 61.9136 99 1 0
1933062S13062 1933 4 SI MM NOT_NAMED 1933-03-03 18:00:00 NR -12.5577 61.8684 main 951 951 _____P____O___ -1 -12.6222 61.9104 99 -12.3000 61.7000 4 2 309
1933062S13062 1933 4 SI MM NOT_NAMED 1933-03-03 21:00:00 NR -12.5263 61.7918 main 956 951 _____P____P___ -1 -12.6445 61.8435 99 -12.2899 61.6884 4 2 279
1933062S13062 1933 4 SI MM NOT_NAMED 1933-03-04 00:00:00 NR -12.5272 61.6646 main 951 932 _____P____P___ -1 -12.6946 61.6969 99 -12.3039 61.6215 4 3 262
1933062S13062 1933 4 SI MM NOT_NAMED 1933-03-04 03:00:00 NR -12.5720 61.4492 main 927 904 _____P____P___ -1 -12.7780 61.4545 99 -12.3660 61.4439 4 6 255
1933062S13062 1933 4 SI MM NOT_NAMED 1933-03-04 06:00:00 TS -12.6778 61.1000 reunion main 904 873 _____O___OO___ -1 -12.9000 61.1000 99 9.90000 -12.5000 61.1000 TC 65 -12.5000 61.1000 4 9 252
1933062S13062 1933 4 SI MM NOT_NAMED 1933-03-04 09:00:00 TS -12.8607 60.5513 main 863 817 _____P___PP___ -1 -13.0633 60.6240 99 -12.7379 60.3952 TC 65 -12.7196 60.5565 4 13 251
1933062S13062 1933 4 SI MM NOT_NAMED 1933-03-04 12:00:00 TS -13.0948 59.8879 main 817 777 _____P___OP___ -1 -13.2614 60.0455 99 -13.0000 59.7000 TC 65 -12.9992 59.8712 4 14 249
1933062S13062 1933 4 SI MM NOT_NAMED 1933-03-04 15:00:00 TS -13.3631 59.1811 main 766 732 _____P___PP___ -1 -13.4855 59.3906 99 -13.2999 59.0275 TC 65 -13.3040 59.1251 4 15 248
1933062S13062 1933 4 SI MM NOT_NAMED 1933-03-04 18:00:00 TS -13.6423 58.4952 main 732 694 _____P___OO___ -1 -13.7269 58.6857 99 -13.6000 58.4000 TC 65 -13.6000 58.4000 4 14 247
1933062S13062 1933 4 SI MM NOT_NAMED 1933-03-04 21:00:00 TS -13.8976 57.8592 main 694 671 _____P___PP___ -1 -13.9770 57.9573 99 -13.8648 57.8348 TC 65 -13.8511 57.7855 4 13 248
1933062S13062 1933 4 SI MM NOT_NAMED 1933-03-05 00:00:00 TS -14.1383 57.2474 main 672 643 _____P___OP___ -1 -14.2278 57.2322 99 -14.1000 57.3000 TC 65 -14.0871 57.2099 4 13 248
1933062S13062 1933 4 SI MM NOT_NAMED 1933-03-05 03:00:00 TS -14.3636 56.6456 main 644 605 _____P___PP___ -1 -14.4713 56.5375 99 -14.3151 56.7200 TC 65 -14.3044 56.6793 4 12 249
1933062S13062 1933 4 SI MM NOT_NAMED 1933-03-05 06:00:00 TS -14.5667 56.1000 reunion main 605 561 _____O___OO___ -1 -14.7000 55.9000 99 9.90000 -14.5000 56.2000 TC 65 -14.5000 56.2000 4 10 249
1933062S13062 1933 4 SI MM NOT_NAMED 1933-03-05 09:00:00 TS -14.7339 55.6738 main 561 516 _____P___PP___ -1 -14.8778 55.4120 99 -14.6572 55.8273 TC 65 -14.6667 55.7822 4 8 248
1933062S13062 1933 4 SI MM NOT_NAMED 1933-03-05 12:00:00 TS -14.8863 55.2937 main 516 473 _____P___OP___ -1 -15.0450 54.9695 99 -14.8000 55.5000 TC 65 -14.8140 55.4117 4 8 248
1933062S13062 1933 4 SI MM NOT_NAMED 1933-03-05 15:00:00 TS -15.0364 54.9138 main 473 440 _____P___PP___ -1 -15.2048 54.5661 99 -14.9499 55.1149 TC 65 -14.9543 55.0604 4 8 248
1933062S13062 1933 4 SI MM NOT_NAMED 1933-03-05 18:00:00 TS -15.1868 54.5317 main 429 386 _____P___OO___ -1 -15.3604 54.1950 99 -15.1000 54.7000 TC 65 -15.1000 54.7000 4 8 248
1933062S13062 1933 4 SI MM NOT_NAMED 1933-03-05 21:00:00 TS -15.3417 54.1255 main 386 343 _____P___PP___ -1 -15.5148 53.8495 99 -15.2425 54.2499 TC 65 -15.2679 54.2772 4 8 248
1933062S13062 1933 4 SI MM NOT_NAMED 1933-03-06 00:00:00 TS -15.5045 53.7218 main 343 311 _____P___OP___ -1 -15.6709 53.5230 99 -15.4000 53.8000 TC 65 -15.4426 53.8425 4 8 246
1933062S13062 1933 4 SI MM NOT_NAMED 1933-03-06 03:00:00 TS -15.6842 53.3351 main 301 271 _____P___PP___ -1 -15.8317 53.2087 99 -15.5999 53.3850 TC 65 -15.6210 53.4115 4 8 244
1933062S13062 1933 4 SI MM NOT_NAMED 1933-03-06 06:00:00 TS -15.8667 52.9667 reunion main 273 234 _____O___OO___ -1 -16.0000 52.9000 99 9.90000 -15.8000 53.0000 TC 65 -15.8000 53.0000 4 8 244
1933062S13062 1933 4 SI MM NOT_NAMED 1933-03-06 09:00:00 TS -16.0322 52.5926 main 234 212 _____P___PP___ -1 -16.1843 52.5075 99 -15.9499 52.6423 TC 65 -15.9625 52.6280 4 8 245
1933062S13062 1933 4 SI MM NOT_NAMED 1933-03-06 12:00:00 TS -16.2006 52.2318 main 202 183 _____P___OP___ -1 -16.3748 52.1186 99 -16.1000 52.3000 TC 65 -16.1270 52.2769 4 8 243
1933062S13062 1933 4 SI MM NOT_NAMED 1933-03-06 15:00:00 TS -16.3887 51.8792 main 183 159 _____P___PP___ -1 -16.5706 51.7428 99 -16.2924 51.9574 TC 65 -16.3031 51.9374 4 8 240
1933062S13062 1933 4 SI MM NOT_NAMED 1933-03-06 18:00:00 TS -16.5903 51.5299 main 154 132 _____P___OO___ -1 -16.7708 51.3898 99 -16.5000 51.6000 TC 65 -16.5000 51.6000 4 8 240
1933062S13062 1933 4 SI MM NOT_NAMED 1933-03-06 21:00:00 TS -16.7961 51.1504 main 139 108 _____P___PP___ -1 -16.9746 51.0692 99 -16.6850 51.1924 TC 65 -16.7288 51.1896 4 8 239
1933062S13062 1933 4 SI MM NOT_NAMED 1933-03-07 00:00:00 TS -17.0197 50.7931 main 108 86 _____P___OP___ -1 -17.1812 50.7909 99 -16.9000 50.8000 TC 65 -16.9780 50.7883 4 8 233
1933062S13062 1933 4 SI MM NOT_NAMED 1933-03-07 03:00:00 TS -17.2735 50.4850 main 93 84 _____P___PP___ -1 -17.3899 50.5645 99 -17.1925 50.4476 TC 65 -17.2381 50.4428 4 7 224
1933062S13062 1933 4 SI MM NOT_NAMED 1933-03-07 06:00:00 TS -17.5333 50.2667 reunion main 87 74 _____O___OO___ -1 -17.6000 50.4000 99 9.90000 -17.5000 50.2000 TC 65 -17.5000 50.2000 4 6 210
1933062S13062 1933 4 SI MM NOT_NAMED 1933-03-07 09:00:00 TS -17.7775 50.1786 main 74 74 _____P___PP___ -1 -17.8052 50.3537 99 -17.7574 50.0899 TC 65 -17.7699 50.0923 4 5 188
1933062S13062 1933 4 SI MM NOT_NAMED 1933-03-07 12:00:00 TS -18.0166 50.1890 main 81 81 _____P___OP___ -1 -18.0127 50.3751 99 -18.0000 50.1000 TC 65 -18.0370 50.0918 4 5 170
1933062S13062 1933 4 SI MM NOT_NAMED 1933-03-07 15:00:00 TS -18.2601 50.2596 main 95 95 _____P___PP___ -1 -18.2223 50.4458 99 -18.2725 50.1624 TC 65 -18.2856 50.1705 4 5 158
1933062S13062 1933 4 SI MM NOT_NAMED 1933-03-07 18:00:00 TS -18.4780 50.3826 main 110 110 _____P___OO___ -1 -18.4340 50.5477 99 -18.5000 50.3000 TC 65 -18.5000 50.3000 4 5 145
1933062S13062 1933 4 SI MM NOT_NAMED 1933-03-07 21:00:00 TS -18.6318 50.5385 main 124 124 _____P___PP___ -1 -18.6476 50.6626 99 -18.6150 50.4926 TC 65 -18.6327 50.4602 4 4 133
1933062S13062 1933 4 SI MM NOT_NAMED 1933-03-08 00:00:00 TS -18.7662 50.7098 main 152 152 _____P___OP___ -1 -18.8632 50.7719 99 -18.7000 50.7000 TC 65 -18.7353 50.6574 4 4 133
1933062S13062 1933 4 SI MM NOT_NAMED 1933-03-08 03:00:00 TS -18.9153 50.8577 main 176 176 _____P___PP___ -1 -19.0806 50.8572 99 -18.8200 50.8650 TC 65 -18.8452 50.8508 4 4 144
1933062S13062 1933 4 SI MM NOT_NAMED 1933-03-08 06:00:00 TS -19.1000 50.9667 reunion main 194 194 _____O___OO___ -1 -19.3000 50.9000 99 9.90000 -19.0000 51.0000 TC 65 -19.0000 51.0000 4 5 161
1933062S13062 1933 4 SI MM NOT_NAMED 1933-03-08 09:00:00 TS -19.3629 51.0176 main 204 204 _____P___PP___ -1 -19.5454 50.8206 99 -19.2775 51.1374 TC 65 -19.2657 51.0947 4 6 175
1933062S13062 1933 4 SI MM NOT_NAMED 1933-03-08 12:00:00 TS -19.6577 51.0129 main 214 213 _____P___OP___ -1 -19.7961 50.7040 99 -19.6000 51.2000 TC 65 -19.5771 51.1346 4 6 187
1933062S13062 1933 4 SI MM NOT_NAMED 1933-03-08 15:00:00 TS -19.9538 50.9420 main 218 210 _____P___PP___ -1 -20.0463 50.5587 99 -19.9149 51.1600 TC 65 -19.9000 51.1072 4 6 199
1933062S13062 1933 4 SI MM NOT_NAMED 1933-03-08 18:00:00 TS -20.2303 50.7977 main 210 193 _____P___OO___ -1 -20.2908 50.3930 99 -20.2000 51.0000 TC 65 -20.2000 51.0000 4 6 214
1933062S13062 1933 4 SI MM NOT_NAMED 1933-03-08 21:00:00 TS -20.4628 50.5715 main 195 170 _____P___PP___ -1 -20.5238 50.2156 99 -20.4151 50.7225 TC 65 -20.4495 50.7763 4 6 226
1933062S13062 1933 4 SI MM NOT_NAMED 1933-03-09 00:00:00 TS -20.6694 50.3053 main 174 160 _____P___OP___ -1 -20.7400 50.0351 99 -20.6000 50.4000 TC 65 -20.6682 50.4809 4 6 230
1933062S13062 1933 4 SI MM NOT_NAMED 1933-03-09 03:00:00 TS -20.8697 50.0501 main 165 141 _____P___PP___ -1 -20.9338 49.8603 99 -20.8225 50.1201 TC 65 -20.8527 50.1700 4 6 230
1933062S13062 1933 4 SI MM NOT_NAMED 1933-03-09 06:00:00 TS -21.0333 49.8333 reunion main 141 135 _____O___OO___ -1 -21.1000 49.7000 99 9.90000 -21.0000 49.9000 TC 65 -21.0000 49.9000 4 4 231
1933062S13062 1933 4 SI MM NOT_NAMED 1933-03-09 09:00:00 TS -21.1322 49.7025 main 135 126 _____P___PP___ -1 -21.2209 49.5810 99 -21.0649 49.7774 TC 65 -21.1107 49.7492 4 3 232
1933062S13062 1933 4 SI MM NOT_NAMED 1933-03-09 12:00:00 TS -21.2004 49.6063 main 126 116 _____P___OP___ -1 -21.3141 49.4718 99 -21.1000 49.7000 TC 65 -21.1872 49.6470 4 2 230
1933062S13062 1933 4 SI MM NOT_NAMED 1933-03-09 15:00:00 TS -21.2768 49.5144 main 118 108 _____P___PP___ -1 -21.3853 49.3721 99 -21.2000 49.6000 TC 65 -21.2451 49.5713 4 2 229
1933062S13062 1933 4 SI MM NOT_NAMED 1933-03-09 18:00:00 TS -21.3466 49.4271 main 108 103 _____P___OO___ -1 -21.4397 49.2813 99 -21.3000 49.5000 TC 65 -21.3000 49.5000 4 2 233
1933062S13062 1933 4 SI MM NOT_NAMED 1933-03-09 21:00:00 TS -21.4040 49.3317 main 103 93 _____P___PP___ -1 -21.4830 49.1992 99 -21.3500 49.4000 TC 65 -21.3791 49.3959 4 2 237
1933062S13062 1933 4 SI MM NOT_NAMED 1933-03-10 00:00:00 TS -21.4593 49.2393 main 93 93 _____P___OP___ -1 -21.5205 49.1252 99 -21.4000 49.3000 TC 65 -21.4575 49.2925 4 2 233
1933062S13062 1933 4 SI MM NOT_NAMED 1933-03-10 03:00:00 TS -21.5299 49.1506 main 93 83 _____P___PP___ -1 -21.5577 49.0590 99 -21.5000 49.2000 TC 65 -21.5322 49.1928 4 2 229
1933062S13062 1933 4 SI MM NOT_NAMED 1933-03-10 06:00:00 TS -21.6000 49.0667 reunion main 85 75 _____O___OO___ -1 -21.6000 49.0000 99 9.90000 -21.6000 49.1000 TC 65 -21.6000 49.1000 4 2 230
1933062S13062 1933 4 SI MM NOT_NAMED 1933-03-10 09:00:00 TS -21.6617 48.9787 main 79 70 _____P___PP___ -1 -21.6703 48.9381 99 -21.6575 48.9925 TC 65 -21.6572 49.0056 4 2 233
1933062S13062 1933 4 SI MM NOT_NAMED 1933-03-10 12:00:00 TS -21.7167 48.9013 main 70 61 _____P___OP___ -1 -21.7427 48.8840 99 -21.7000 48.9000 TC 65 -21.7075 48.9200 4 2 230
1933062S13062 1933 4 SI MM NOT_NAMED 1933-03-10 15:00:00 TS -21.7736 48.8405 main 61 61 _____P___PP___ -1 -21.8169 48.8372 99 -21.7500 48.8350 TC 65 -21.7541 48.8494 4 1 220
1933062S13062 1933 4 SI MM NOT_NAMED 1933-03-10 18:00:00 TS -21.8308 48.7991 main 61 61 _____P___OO___ -1 -21.8924 48.7974 99 -21.8000 48.8000 TC 65 -21.8000 48.8000 4 1 207
1933062S13062 1933 4 SI MM NOT_NAMED 1933-03-10 21:00:00 TS -21.8855 48.7824 main 62 62 _____P___PP___ -1 -21.9689 48.7642 99 -21.8500 48.7925 TC 65 -21.8378 48.7905 4 1 190
1933062S13062 1933 4 SI MM NOT_NAMED 1933-03-11 00:00:00 TS -21.9411 48.7790 main 62 62 _____P___OP___ -1 -22.0459 48.7372 99 -21.9000 48.8000 TC 65 -21.8775 48.7999 4 1 0
1933062S13062 1933 4 SI MM NOT_NAMED 1933-03-11 03:00:00 TS -21.9980 48.7800 main 65 65 _____P___PP___ -1 -22.1231 48.7159 99 -21.9425 48.8150 TC 65 -21.9284 48.8093 4 1 0
1933062S13062 1933 4 SI MM NOT_NAMED 1933-03-11 06:00:00 TS -22.0667 48.7667 reunion main 70 61 _____O___OO___ -1 -22.2000 48.7000 99 9.90000 -22.0000 48.8000 TC 65 -22.0000 48.8000 4 2 203
1933062S13062 1933 4 SI MM NOT_NAMED 1933-03-11 09:00:00 TS -22.1526 48.7067 main 65 56 _____P___PP___ -1 -22.2692 48.6822 99 -22.0850 48.7075 TC 65 -22.1035 48.7305 4 2 213
1933062S13062 1933 4 SI MM NOT_NAMED 1933-03-11 12:00:00 TS -22.2551 48.6377 main 61 61 _____P___OP___ -1 -22.3378 48.6703 99 -22.2000 48.6000 TC 65 -22.2276 48.6427 4 2 207
1933062S13062 1933 4 SI MM NOT_NAMED 1933-03-11 15:00:00 TS -22.3707 48.5858 main 65 65 _____P___PP___ -1 -22.4068 48.6638 99 -22.3425 48.5350 TC 65 -22.3629 48.5586 4 3 198
1933062S13062 1933 4 SI MM NOT_NAMED 1933-03-11 18:00:00 TS -22.4925 48.5542 main 70 61 _____P___OO___ -1 -22.4775 48.6625 99 -22.5000 48.5000 TC 65 -22.5000 48.5000 4 2 190
1933062S13062 1933 4 SI MM NOT_NAMED 1933-03-11 21:00:00 TS -22.6111 48.5490 main 62 62 _____P___PP___ -1 -22.5509 48.6658 99 -22.6575 48.4850 TC 65 -22.6250 48.4961 4 2 177
1933062S13062 1933 4 SI MM NOT_NAMED 1933-03-12 00:00:00 TS -22.7261 48.5644 main 75 75 _____P___OP___ -1 -22.6284 48.6735 99 -22.8000 48.5000 TC 65 -22.7500 48.5199 4 2 171
1933062S13062 1933 4 SI MM NOT_NAMED 1933-03-12 03:00:00 TS -22.8287 48.5979 main 79 79 _____P___PP___ -1 -22.7110 48.6850 99 -22.9000 48.5500 TC 65 -22.8750 48.5587 4 2 163
1933062S13062 1933 4 SI MM NOT_NAMED 1933-03-12 06:00:00 TS -22.9333 48.6333 reunion main 81 81 _____O___OO___ -1 -22.8000 48.7000 99 9.90000 -23.0000 48.6000 TC 65 -23.0000 48.6000 4 2 170
1933062S13062 1933 4 SI MM NOT_NAMED 1933-03-12 09:00:00 TS -23.0522 48.6412 main 84 84 _____P___PP___ -1 -22.8775 48.7026 99 -23.1500 48.6000 TC 65 -23.1291 48.6210 4 2 0
1933062S13062 1933 4 SI MM NOT_NAMED 1933-03-12 12:00:00 TS -23.1720 48.6501 main 97 97 _____P___OP___ -1 -22.9587 48.7079 99 -23.3000 48.6000 TC 65 -23.2575 48.6425 4 2 169
1933062S13062 1933 4 SI MM NOT_NAMED 1933-03-12 15:00:00 TS -23.2788 48.6760 main 102 102 _____P___PP___ -1 -23.0467 48.7176 99 -23.4075 48.6425 TC 65 -23.3822 48.6678 4 2 165
1933062S13062 1933 4 SI MM NOT_NAMED 1933-03-12 18:00:00 TS -23.3816 48.7112 main 102 102 _____P___OO___ -1 -23.1448 48.7337 99 -23.5000 48.7000 TC 65 -23.5000 48.7000 4 2 161
1933062S13062 1933 4 SI MM NOT_NAMED 1933-03-12 21:00:00 TS -23.4837 48.7490 main 102 102 _____P___PP___ -1 -23.2561 48.7580 99 -23.6000 48.7500 TC 65 -23.5950 48.7388 4 2 158
1933062S13062 1933 4 SI MM NOT_NAMED 1933-03-13 00:00:00 TS -23.5895 48.7926 main 114 114 _____P___OP___ -1 -23.3836 48.7926 99 -23.7000 48.8000 TC 65 -23.6850 48.7851 4 2 157
1933062S13062 1933 4 SI MM NOT_NAMED 1933-03-13 03:00:00 TS -23.6993 48.8427 main 116 116 _____P___PP___ -1 -23.5305 48.8393 99 -23.7850 48.8500 TC 65 -23.7825 48.8388 4 3 158
1933062S13062 1933 4 SI MM NOT_NAMED 1933-03-13 06:00:00 TS -23.8333 48.9000 reunion main 130 130 _____O___OO___ -1 -23.7000 48.9000 99 9.90000 -23.9000 48.9000 TC 65 -23.9000 48.9000 4 3 161
1933062S13062 1933 4 SI MM NOT_NAMED 1933-03-13 09:00:00 TS -24.0142 48.9620 main 148 148 _____P___PP___ -1 -23.9009 48.9796 99 -24.0925 48.9425 TC 65 -24.0494 48.9638 4 4 162
1933062S13062 1933 4 SI MM NOT_NAMED 1933-03-13 12:00:00 TS -24.2151 49.0364 main 153 153 _____P___OP___ -1 -24.1252 49.0740 99 -24.3000 49.0000 TC 65 -24.2200 49.0351 4 4 159
1933062S13062 1933 4 SI MM NOT_NAMED 1933-03-13 15:00:00 TS -24.4079 49.1290 main 168 168 _____P___PP___ -1 -24.3682 49.1806 99 -24.4500 49.0925 TC 65 -24.4056 49.1138 4 4 156
1933062S13062 1933 4 SI MM NOT_NAMED 1933-03-13 18:00:00 TS -24.6084 49.2322 main 184 184 _____P___OO___ -1 -24.6253 49.2966 99 -24.6000 49.2000 TC 65 -24.6000 49.2000 4 5 156
1933062S13062 1933 4 SI MM NOT_NAMED 1933-03-13 21:00:00 TS -24.8162 49.3335 main 202 202 _____P___PP___ -1 -24.8917 49.4193 99 -24.7925 49.3000 TC 65 -24.7643 49.2810 4 5 156
1933062S13062 1933 4 SI MM NOT_NAMED 1933-03-14 00:00:00 TS -25.0342 49.4389 main 219 219 _____P___OP___ -1 -25.1627 49.5460 99 -25.0000 49.4000 TC 65 -24.9399 49.3707 4 5 157
1933062S13062 1933 4 SI MM NOT_NAMED 1933-03-14 03:00:00 TS -25.2522 49.5447 main 239 239 _____P___PP___ -1 -25.4337 49.6739 99 -25.1775 49.4852 TC 65 -25.1455 49.4749 4 5 156
1933062S13062 1933 4 SI MM NOT_NAMED 1933-03-14 06:00:00 TS -25.5000 49.6667 reunion main 266 266 _____O___OO___ -1 -25.7000 49.8000 99 9.90000 -25.4000 49.6000 TC 65 -25.4000 49.6000 4 6 156
1933062S13062 1933 4 SI MM NOT_NAMED 1933-03-14 09:00:00 TS -25.8050 49.8212 main 285 285 _____P___PP___ -1 -25.9579 49.9221 99 -25.7201 49.7924 TC 65 -25.7369 49.7491 4 7 156
1933062S13062 1933 4 SI MM NOT_NAMED 1933-03-14 12:00:00 TS -26.1426 49.9866 main 315 315 _____P___OP___ -1 -26.2077 50.0403 99 -26.1000 50.0000 TC 65 -26.1200 49.9196 4 7 158
1933062S13062 1933 4 SI MM NOT_NAMED 1933-03-14 15:00:00 TS -26.4920 50.1369 main 343 343 _____P___PP___ -1 -26.4505 50.1550 99 -26.5074 50.1502 TC 65 -26.5181 50.1054 4 7 158
1933062S13062 1933 4 SI MM NOT_NAMED 1933-03-14 18:00:00 TS -26.8291 50.2890 main 377 377 _____P___OO___ -1 -26.6874 50.2670 99 -26.9000 50.3000 TC 65 -26.9000 50.3000 4 7 156
1933062S13062 1933 4 SI MM NOT_NAMED 1933-03-14 21:00:00 TS -27.1254 50.4557 main 412 412 _____P___PP___ -1 -26.9197 50.3769 99 -27.2150 50.4926 TC 65 -27.2416 50.4977 4 6 152
1933062S13062 1933 4 SI MM NOT_NAMED 1933-03-15 00:00:00 TS -27.3987 50.6275 main 439 439 _____P___OP___ -1 -27.1485 50.4853 99 -27.5000 50.7000 TC 65 -27.5477 50.6971 4 6 151
1933062S13062 1933 4 SI MM NOT_NAMED 1933-03-15 03:00:00 TS -27.6666 50.7977 main 476 476 _____P___PP___ -1 -27.3749 50.5927 99 -27.7950 50.9023 TC 65 -27.8299 50.8980 4 6 151
1933062S13062 1933 4 SI MM NOT_NAMED 1933-03-15 06:00:00 TS -27.9333 50.9667 reunion main 505 _____O___OO___ -1 -27.6000 50.7000 99 9.90000 -28.1000 51.1000 TC 65 -28.1000 51.1000 4 6 151

About IBTrACS Database

This database is a web-friendly format of International Best Track Archive for Climate Stewardship (IBTrACS), a global best track data archive curated by NOAA dating back to 1842.

Updated: 2021-11-26